createdAt,value
2018-05-11T00:00:24.773Z,100.00
2018-05-11T00:02:52.248Z,100.00
2018-05-11T00:05:19.742Z,100.00
2018-05-11T00:07:47.224Z,100.00
2018-05-11T00:10:14.691Z,100.00
2018-05-11T00:12:42.168Z,100.00
2018-05-11T00:15:09.655Z,100.00
2018-05-11T00:17:37.141Z,100.00
2018-05-11T00:20:04.617Z,100.00
2018-05-11T00:22:32.112Z,100.00
2018-05-11T00:24:59.575Z,100.00
2018-05-11T00:27:27.044Z,100.00
2018-05-11T00:29:54.524Z,100.00
2018-05-11T00:32:21.992Z,100.00
2018-05-11T00:34:49.484Z,100.00
2018-05-11T00:37:16.952Z,100.00
2018-05-11T00:39:44.438Z,100.00
2018-05-11T00:42:12.277Z,100.00
2018-05-11T00:44:39.756Z,100.00
2018-05-11T00:47:07.256Z,100.00
2018-05-11T00:49:34.720Z,100.00
2018-05-11T00:52:02.217Z,100.00
2018-05-11T00:54:29.696Z,100.00
2018-05-11T00:56:57.180Z,100.00
2018-05-11T00:59:24.675Z,100.00
2018-05-11T01:01:52.145Z,100.00
2018-05-11T01:04:19.880Z,100.00
2018-05-11T01:06:47.351Z,100.00
2018-05-11T01:09:14.824Z,100.00
2018-05-11T01:11:42.319Z,100.00
2018-05-11T01:14:09.783Z,100.00
2018-05-11T01:16:37.293Z,100.00
2018-05-11T01:19:04.775Z,100.00
2018-05-11T01:21:32.257Z,100.00
2018-05-11T01:23:59.744Z,100.00
2018-05-11T01:26:27.216Z,100.00
2018-05-11T01:28:54.700Z,100.00
2018-05-11T01:31:22.168Z,100.00
2018-05-11T01:33:49.643Z,100.00
2018-05-11T01:36:17.128Z,100.00
2018-05-11T01:38:44.592Z,100.00
2018-05-11T01:41:12.093Z,100.00
2018-05-11T01:43:39.563Z,100.00
2018-05-11T01:46:07.039Z,100.00
2018-05-11T01:48:34.536Z,100.00
2018-05-11T01:51:02.007Z,100.00
2018-05-11T01:53:29.493Z,100.00
2018-05-11T01:55:56.951Z,100.00
2018-05-11T01:58:24.422Z,100.00
2018-05-11T02:00:51.920Z,100.00
2018-05-11T02:03:19.394Z,100.00
2018-05-11T02:05:46.884Z,100.00
2018-05-11T02:08:14.352Z,100.00
2018-05-11T02:10:41.821Z,100.00
2018-05-11T02:13:09.312Z,100.00
2018-05-11T02:15:36.775Z,100.00
2018-05-11T02:18:04.271Z,100.00
2018-05-11T02:20:31.755Z,100.00
2018-05-11T02:22:59.220Z,100.00
2018-05-11T02:25:26.713Z,100.00
2018-05-11T02:27:54.195Z,100.00
2018-05-11T02:30:21.701Z,100.00
2018-05-11T02:32:49.178Z,100.00
2018-05-11T02:35:16.648Z,100.00
2018-05-11T02:37:44.140Z,100.00
2018-05-11T02:40:11.610Z,100.00
2018-05-11T02:42:39.111Z,100.00
2018-05-11T02:45:06.579Z,100.00
2018-05-11T02:47:34.123Z,100.00
2018-05-11T02:50:01.639Z,100.00
2018-05-11T02:52:29.198Z,100.00
2018-05-11T02:54:56.693Z,100.00
2018-05-11T02:57:24.172Z,100.00
2018-05-11T02:59:51.649Z,100.00
2018-05-11T03:02:19.145Z,100.00
2018-05-11T03:04:46.620Z,100.00
2018-05-11T03:07:14.116Z,100.00
2018-05-11T03:09:41.592Z,100.00
2018-05-11T03:12:09.059Z,100.00
2018-05-11T03:14:36.544Z,100.00
2018-05-11T03:17:04.019Z,100.00
2018-05-11T03:19:31.520Z,100.00
2018-05-11T03:21:58.996Z,100.00
2018-05-11T03:24:26.478Z,100.00
2018-05-11T03:26:53.960Z,100.00
2018-05-11T03:29:21.434Z,100.00
2018-05-11T03:31:48.925Z,100.00
2018-05-11T03:34:16.393Z,100.00
2018-05-11T03:36:43.860Z,100.00
2018-05-11T03:39:11.340Z,100.00
2018-05-11T03:41:38.812Z,100.00
2018-05-11T03:44:06.302Z,100.00
2018-05-11T03:46:33.772Z,100.00
2018-05-11T03:49:01.284Z,100.00
2018-05-11T03:51:28.760Z,100.00
2018-05-11T03:53:56.227Z,100.00
2018-05-11T03:56:23.735Z,100.00
2018-05-11T03:58:51.213Z,100.00
2018-05-11T04:01:30.373Z,100.00
2018-05-11T04:04:09.674Z,100.00
2018-05-11T04:06:49.024Z,100.00
2018-05-11T04:09:16.490Z,100.00
2018-05-11T04:11:44.404Z,100.00
2018-05-11T04:14:11.895Z,100.00
2018-05-11T04:16:40.216Z,100.00
2018-05-11T04:19:07.719Z,100.00
2018-05-11T04:21:35.184Z,100.00
2018-05-11T04:24:02.647Z,100.00
2018-05-11T04:26:30.150Z,100.00
2018-05-11T04:28:57.618Z,100.00
2018-05-11T04:31:25.109Z,100.00
2018-05-11T04:33:52.576Z,100.00
2018-05-11T04:36:20.043Z,100.00
2018-05-11T04:38:47.523Z,100.00
2018-05-11T04:41:14.993Z,100.00
2018-05-11T04:43:42.500Z,100.00
2018-05-11T04:46:09.965Z,100.00
2018-05-11T04:48:37.435Z,100.00
2018-05-11T04:51:05.021Z,100.00
2018-05-11T04:53:32.500Z,100.00
2018-05-11T04:55:59.988Z,100.00
2018-05-11T04:58:27.452Z,100.00
2018-05-11T05:00:54.924Z,100.00
2018-05-11T05:03:22.400Z,100.00
2018-05-11T05:05:49.866Z,100.00
2018-05-11T05:08:17.374Z,100.00
2018-05-11T05:10:44.928Z,100.00
2018-05-11T05:13:12.397Z,100.00
2018-05-11T05:15:39.889Z,100.00
2018-05-11T05:18:07.357Z,100.00
2018-05-11T05:20:34.851Z,100.00
2018-05-11T05:23:02.337Z,100.00
2018-05-11T05:25:29.812Z,100.00
2018-05-11T05:27:57.305Z,100.00
2018-05-11T05:30:24.772Z,100.00
2018-05-11T05:32:52.276Z,100.00
2018-05-11T05:35:19.760Z,100.00
2018-05-11T05:37:47.234Z,100.00
2018-05-11T05:40:14.716Z,100.00
2018-05-11T05:42:42.190Z,100.00
2018-05-11T05:45:09.690Z,100.00
2018-05-11T05:47:37.167Z,100.00
2018-05-11T05:50:04.652Z,100.00
2018-05-11T05:52:32.160Z,100.00
2018-05-11T05:54:59.631Z,100.00
2018-05-11T05:57:27.112Z,100.00
2018-05-11T05:59:54.611Z,100.00
2018-05-11T06:02:22.120Z,100.00
2018-05-11T06:04:49.595Z,100.00
2018-05-11T06:07:17.069Z,100.00
2018-05-11T06:09:44.860Z,100.00
2018-05-11T06:12:12.335Z,100.00
2018-05-11T06:14:39.808Z,100.00
2018-05-11T06:17:07.289Z,100.00
2018-05-11T06:19:34.761Z,100.00
2018-05-11T06:22:02.321Z,100.00
2018-05-11T06:24:29.758Z,100.00
2018-05-11T06:26:57.229Z,100.00
2018-05-11T06:29:24.719Z,100.00
2018-05-11T06:31:52.199Z,100.00
2018-05-11T06:34:19.754Z,100.00
2018-05-11T06:36:47.270Z,100.00
2018-05-11T06:39:14.744Z,100.00
2018-05-11T06:41:42.547Z,100.00
2018-05-11T06:44:10.022Z,100.00
2018-05-11T06:46:37.503Z,99.01
2018-05-11T06:49:04.980Z,100.00
2018-05-11T06:51:32.444Z,99.70
2018-05-11T06:54:00.627Z,97.45
2018-05-11T06:56:28.092Z,97.12
2018-05-11T06:58:55.576Z,96.52
2018-05-11T07:01:23.040Z,97.95
2018-05-11T07:03:50.519Z,98.93
2018-05-11T07:06:18.028Z,99.38
2018-05-11T07:08:45.488Z,99.74
2018-05-11T07:11:12.954Z,97.29
2018-05-11T07:13:40.464Z,97.07
2018-05-11T07:16:07.928Z,93.73
2018-05-11T07:18:35.390Z,92.33
2018-05-11T07:21:02.888Z,93.24
2018-05-11T07:23:30.408Z,93.97
2018-05-11T07:25:57.904Z,94.07
2018-05-11T07:28:25.367Z,95.26
2018-05-11T07:30:52.844Z,91.67
2018-05-11T07:33:20.329Z,91.54
2018-05-11T07:35:47.798Z,89.93
2018-05-11T07:38:15.288Z,92.38
2018-05-11T07:40:42.748Z,93.11
2018-05-11T07:43:10.271Z,89.12
2018-05-11T07:45:37.725Z,88.50
2018-05-11T07:48:05.197Z,87.28
2018-05-11T07:50:32.679Z,86.27
2018-05-11T07:53:00.136Z,88.11
2018-05-11T07:55:27.595Z,84.62
2018-05-11T07:57:55.088Z,84.84
2018-05-11T08:00:22.715Z,91.18
2018-05-11T08:02:50.220Z,87.08
2018-05-11T08:05:17.692Z,83.34
2018-05-11T08:07:45.153Z,86.64
2018-05-11T08:10:12.629Z,86.61
2018-05-11T08:12:40.095Z,84.67
2018-05-11T08:15:07.582Z,83.46
2018-05-11T08:17:35.063Z,81.86
2018-05-11T08:20:02.542Z,80.62
2018-05-11T08:22:30.025Z,78.31
2018-05-11T08:24:57.495Z,80.24
2018-05-11T08:27:24.979Z,81.39
2018-05-11T08:29:52.462Z,79.51
2018-05-11T08:32:19.939Z,78.16
2018-05-11T08:34:47.434Z,77.95
2018-05-11T08:37:14.908Z,77.64
2018-05-11T08:39:42.382Z,80.30
2018-05-11T08:42:09.847Z,80.84
2018-05-11T08:44:37.324Z,83.25
2018-05-11T08:47:04.800Z,78.85
2018-05-11T08:49:32.269Z,77.61
2018-05-11T08:51:59.834Z,74.17
2018-05-11T08:54:27.225Z,77.22
2018-05-11T08:56:54.773Z,77.95
2018-05-11T08:59:22.243Z,80.20
2018-05-11T09:01:49.700Z,76.82
2018-05-11T09:04:17.234Z,75.94
2018-05-11T09:06:44.696Z,74.48
2018-05-11T09:09:12.276Z,77.10
2018-05-11T09:11:39.751Z,78.55
2018-05-11T09:14:07.213Z,76.72
2018-05-11T09:16:34.693Z,77.78
2018-05-11T09:19:02.156Z,77.83
2018-05-11T09:21:29.729Z,77.39
2018-05-11T09:23:57.131Z,81.25
2018-05-11T09:26:24.597Z,80.78
2018-05-11T09:28:52.079Z,76.96
2018-05-11T09:31:19.548Z,78.48
2018-05-11T09:33:47.029Z,79.30
2018-05-11T09:36:14.501Z,79.94
2018-05-11T09:38:41.963Z,78.13
2018-05-11T09:41:09.460Z,78.47
2018-05-11T09:43:36.942Z,75.61
2018-05-11T09:46:04.427Z,75.08
2018-05-11T09:48:31.896Z,78.79
2018-05-11T09:50:59.359Z,75.60
2018-05-11T09:53:26.863Z,74.65
2018-05-11T09:55:54.331Z,75.79
2018-05-11T09:58:21.816Z,73.44
2018-05-11T10:00:49.289Z,73.70
2018-05-11T10:03:16.768Z,73.15
2018-05-11T10:05:44.256Z,74.09
2018-05-11T10:08:11.779Z,76.43
2018-05-11T10:10:39.269Z,76.73
2018-05-11T10:13:06.736Z,76.97
2018-05-11T10:15:34.214Z,75.38
2018-05-11T10:18:01.709Z,74.46
2018-05-11T10:20:29.176Z,74.43
2018-05-11T10:22:56.665Z,76.30
2018-05-11T10:25:24.145Z,75.95
2018-05-11T10:27:51.604Z,75.23
2018-05-11T10:30:19.093Z,70.76
2018-05-11T10:32:46.568Z,71.25
2018-05-11T10:35:14.056Z,70.45
2018-05-11T10:37:41.535Z,70.58
2018-05-11T10:40:09.014Z,69.69
2018-05-11T10:42:36.512Z,67.33
2018-05-11T10:45:03.991Z,66.57
2018-05-11T10:47:31.479Z,66.60
2018-05-11T10:49:58.944Z,63.69
2018-05-11T10:52:26.499Z,63.85
2018-05-11T10:54:53.919Z,64.54
2018-05-11T10:57:21.947Z,63.72
2018-05-11T10:59:49.758Z,68.17
2018-05-11T11:02:17.229Z,66.50
2018-05-11T11:04:44.702Z,63.44
2018-05-11T11:07:12.200Z,63.77
2018-05-11T11:09:39.656Z,62.94
2018-05-11T11:12:07.158Z,64.88
2018-05-11T11:14:34.660Z,67.84
2018-05-11T11:17:02.473Z,67.33
2018-05-11T11:19:29.945Z,62.60
2018-05-11T11:21:57.416Z,60.31
2018-05-11T11:24:24.897Z,60.82
2018-05-11T11:26:52.362Z,62.39
2018-05-11T11:29:19.852Z,60.83
2018-05-11T11:31:47.324Z,60.76
2018-05-11T11:34:15.509Z,63.44
2018-05-11T11:36:42.935Z,56.79
2018-05-11T11:39:11.010Z,52.22
2018-05-11T11:41:38.497Z,55.16
2018-05-11T11:44:05.967Z,51.87
2018-05-11T11:46:33.819Z,51.47
2018-05-11T11:49:01.289Z,51.74
2018-05-11T11:51:28.768Z,55.39
2018-05-11T11:53:56.586Z,56.92
2018-05-11T11:56:24.307Z,57.42
2018-05-11T11:58:51.896Z,55.55
2018-05-11T12:01:19.357Z,48.87
2018-05-11T12:03:46.818Z,52.63
2018-05-11T12:06:14.621Z,53.16
2018-05-11T12:08:42.339Z,45.85
2018-05-11T12:11:09.822Z,48.65
2018-05-11T12:13:37.634Z,50.04
2018-05-11T12:16:05.125Z,48.78
2018-05-11T12:18:33.131Z,44.95
2018-05-11T12:21:00.590Z,47.52
2018-05-11T12:23:28.108Z,49.28
2018-05-11T12:25:55.576Z,49.13
2018-05-11T12:28:23.032Z,42.68
2018-05-11T12:30:50.505Z,49.29
2018-05-11T12:33:17.968Z,47.96
2018-05-11T12:35:45.519Z,50.23
2018-05-11T12:38:13.072Z,46.15
2018-05-11T12:40:40.529Z,43.39
2018-05-11T12:43:08.009Z,43.50
2018-05-11T12:45:36.056Z,48.95
2018-05-11T12:48:03.588Z,42.02
2018-05-11T12:50:31.038Z,44.09
2018-05-11T12:52:58.611Z,41.14
2018-05-11T12:55:25.989Z,43.26
2018-05-11T12:57:53.443Z,45.52
2018-05-11T13:00:20.921Z,41.36
2018-05-11T13:02:48.392Z,43.38
2018-05-11T13:05:15.876Z,40.87
2018-05-11T13:07:43.337Z,42.52
2018-05-11T13:10:10.785Z,41.20
2018-05-11T13:12:38.279Z,39.74
2018-05-11T13:15:05.739Z,42.10
2018-05-11T13:17:33.239Z,38.92
2018-05-11T13:20:00.687Z,40.83
2018-05-11T13:22:28.135Z,38.83
2018-05-11T13:24:55.743Z,41.24
2018-05-11T13:27:23.200Z,39.40
2018-05-11T13:29:50.676Z,38.71
2018-05-11T13:32:18.139Z,39.11
2018-05-11T13:34:45.602Z,39.83
2018-05-11T13:37:13.084Z,39.22
2018-05-11T13:39:40.547Z,38.17
2018-05-11T13:42:08.050Z,40.98
2018-05-11T13:44:35.506Z,36.77
2018-05-11T13:47:02.960Z,43.25
2018-05-11T13:49:30.439Z,40.32
2018-05-11T13:51:57.908Z,40.26
2018-05-11T13:54:25.412Z,37.43
2018-05-11T13:56:53.855Z,39.05
2018-05-11T13:59:21.324Z,40.54
2018-05-11T14:01:48.821Z,37.11
2018-05-11T14:04:16.284Z,39.75
2018-05-11T14:06:43.761Z,39.43
2018-05-11T14:09:11.235Z,39.70
2018-05-11T14:11:38.699Z,38.45
2018-05-11T14:14:06.180Z,38.31
2018-05-11T14:16:33.650Z,37.41
2018-05-11T14:19:01.129Z,38.69
2018-05-11T14:21:28.587Z,34.92
2018-05-11T14:23:56.047Z,38.31
2018-05-11T14:26:23.529Z,37.06
2018-05-11T14:28:50.987Z,35.66
2018-05-11T14:31:18.547Z,39.59
2018-05-11T14:33:45.945Z,35.67
2018-05-11T14:36:13.418Z,38.45
2018-05-11T14:38:40.888Z,36.76
2018-05-11T14:41:08.352Z,40.97
2018-05-11T14:43:35.847Z,38.62
2018-05-11T14:46:03.300Z,37.13
2018-05-11T14:48:30.756Z,35.05
2018-05-11T14:50:58.247Z,39.42
2018-05-11T14:53:25.706Z,39.95
2018-05-11T14:55:53.376Z,37.61
2018-05-11T14:58:20.840Z,38.19
2018-05-11T15:00:49.183Z,36.12
2018-05-11T15:03:16.661Z,38.35
2018-05-11T15:05:44.145Z,37.09
2018-05-11T15:08:11.628Z,37.88
2018-05-11T15:10:39.093Z,37.03
2018-05-11T15:13:06.576Z,38.62
2018-05-11T15:15:34.055Z,37.30
2018-05-11T15:18:01.503Z,38.35
2018-05-11T15:20:28.980Z,38.88
2018-05-11T15:22:56.448Z,39.01
2018-05-11T15:25:23.924Z,37.93
2018-05-11T15:27:51.396Z,36.65
2018-05-11T15:30:19.222Z,35.30
2018-05-11T15:32:46.710Z,36.59
2018-05-11T15:35:14.166Z,35.13
2018-05-11T15:37:41.632Z,36.28
2018-05-11T15:40:09.185Z,38.22
2018-05-11T15:42:36.659Z,37.91
2018-05-11T15:45:04.134Z,36.68
2018-05-11T15:47:31.599Z,36.45
2018-05-11T15:49:59.087Z,37.68
2018-05-11T15:52:26.558Z,35.62
2018-05-11T15:54:54.031Z,35.86
2018-05-11T15:57:21.495Z,36.39
2018-05-11T15:59:49.137Z,36.99
2018-05-11T16:02:16.624Z,39.63
2018-05-11T16:04:44.104Z,38.52
2018-05-11T16:07:11.589Z,36.67
2018-05-11T16:09:39.051Z,33.89
2018-05-11T16:12:06.535Z,33.74
2018-05-11T16:14:34.017Z,36.76
2018-05-11T16:17:01.511Z,33.97
2018-05-11T16:19:28.993Z,36.64
2018-05-11T16:21:56.460Z,36.69
2018-05-11T16:24:23.944Z,35.05
2018-05-11T16:26:51.407Z,34.77
2018-05-11T16:29:18.965Z,35.52
2018-05-11T16:31:46.451Z,35.47
2018-05-11T16:34:13.928Z,34.14
2018-05-11T16:36:41.415Z,36.09
2018-05-11T16:39:08.897Z,36.44
2018-05-11T16:41:36.365Z,36.41
2018-05-11T16:44:03.838Z,35.83
2018-05-11T16:46:31.305Z,35.99
2018-05-11T16:48:58.789Z,37.27
2018-05-11T16:51:26.287Z,36.82
2018-05-11T16:53:53.748Z,39.21
2018-05-11T16:56:21.235Z,38.02
2018-05-11T16:58:48.728Z,36.27
2018-05-11T17:01:16.219Z,36.25
2018-05-11T17:03:43.924Z,37.77
2018-05-11T17:06:11.383Z,36.74
2018-05-11T17:08:38.855Z,37.47
2018-05-11T17:11:06.784Z,38.47
2018-05-11T17:13:34.276Z,38.17
2018-05-11T17:16:01.740Z,37.08
2018-05-11T17:18:29.195Z,36.47
2018-05-11T17:20:56.672Z,37.21
2018-05-11T17:23:24.129Z,37.37
2018-05-11T17:25:51.599Z,37.18
2018-05-11T17:28:19.060Z,38.06
2018-05-11T17:30:46.527Z,38.40
2018-05-11T17:33:14.012Z,38.22
2018-05-11T17:35:41.480Z,37.77
2018-05-11T17:38:08.978Z,41.54
2018-05-11T17:40:36.459Z,40.98
2018-05-11T17:43:03.920Z,42.18
2018-05-11T17:45:31.395Z,43.85
2018-05-11T17:47:58.856Z,44.00
2018-05-11T17:50:26.341Z,46.13
2018-05-11T17:52:53.843Z,48.05
2018-05-11T17:55:21.324Z,48.25
2018-05-11T17:57:48.784Z,49.42
2018-05-11T18:00:16.243Z,49.53
2018-05-11T18:02:43.728Z,49.54
2018-05-11T18:05:11.205Z,50.56
2018-05-11T18:07:38.705Z,52.75
2018-05-11T18:10:06.233Z,53.36
2018-05-11T18:12:33.659Z,53.77
2018-05-11T18:15:01.117Z,55.24
2018-05-11T18:17:29.060Z,55.80
2018-05-11T18:19:56.614Z,56.70
2018-05-11T18:22:25.065Z,58.49
2018-05-11T18:24:52.550Z,57.66
2018-05-11T18:27:20.003Z,58.38
2018-05-11T18:29:47.479Z,59.35
2018-05-11T18:32:15.768Z,59.58
2018-05-11T18:34:43.421Z,59.76
2018-05-11T18:37:10.903Z,60.95
2018-05-11T18:39:38.452Z,61.52
2018-05-11T18:42:06.975Z,61.06
2018-05-11T18:44:34.424Z,62.61
2018-05-11T18:47:01.919Z,61.98
2018-05-11T18:49:30.355Z,62.26
2018-05-11T18:51:57.807Z,64.16
2018-05-11T18:54:26.006Z,63.92
2018-05-11T18:56:54.073Z,64.25
2018-05-11T18:59:22.540Z,65.03
2018-05-11T19:01:50.888Z,65.95
2018-05-11T19:04:18.352Z,67.44
2018-05-11T19:06:45.828Z,65.80
2018-05-11T19:09:13.308Z,65.18
2018-05-11T19:11:40.763Z,65.12
2018-05-11T19:14:08.248Z,65.44
2018-05-11T19:16:36.939Z,66.14
2018-05-11T19:19:04.788Z,66.20
2018-05-11T19:21:32.256Z,66.45
2018-05-11T19:23:59.760Z,66.12
2018-05-11T19:26:28.580Z,65.87
2018-05-11T19:28:57.540Z,66.84
2018-05-11T19:31:25.587Z,67.51
2018-05-11T19:33:53.050Z,67.81
2018-05-11T19:36:20.762Z,67.90
2018-05-11T19:38:48.420Z,67.62
2018-05-11T19:41:15.881Z,67.45
2018-05-11T19:43:43.362Z,67.48
2018-05-11T19:46:10.824Z,67.90
2018-05-11T19:48:38.292Z,68.31
2018-05-11T19:51:05.969Z,68.75
2018-05-11T19:53:34.703Z,68.98
2018-05-11T19:56:02.320Z,69.80
2018-05-11T19:58:30.845Z,70.36
2018-05-11T20:00:58.322Z,70.67
2018-05-11T20:03:25.818Z,72.29
2018-05-11T20:05:53.789Z,72.34
2018-05-11T20:08:21.280Z,72.24
2018-05-11T20:10:49.499Z,73.34
2018-05-11T20:13:16.992Z,74.00
2018-05-11T20:15:44.551Z,73.54
2018-05-11T20:18:13.168Z,74.19
2018-05-11T20:20:40.594Z,74.78
2018-05-11T20:23:08.064Z,75.15
2018-05-11T20:25:36.284Z,76.25
2018-05-11T20:28:03.813Z,75.73
2018-05-11T20:30:31.283Z,75.84
2018-05-11T20:32:59.013Z,75.96
2018-05-11T20:35:26.476Z,75.98
2018-05-11T20:37:53.935Z,75.03
2018-05-11T20:40:21.419Z,75.11
2018-05-11T20:42:48.890Z,77.43
2018-05-11T20:45:16.371Z,76.17
2018-05-11T20:47:43.837Z,75.57
2018-05-11T20:50:11.311Z,76.01
2018-05-11T20:52:38.780Z,77.01
2018-05-11T20:55:06.257Z,76.31
2018-05-11T20:57:33.737Z,76.82
2018-05-11T21:00:01.193Z,76.45
2018-05-11T21:02:28.695Z,75.80
2018-05-11T21:04:56.224Z,76.17
2018-05-11T21:07:23.653Z,76.43
2018-05-11T21:09:51.125Z,75.29
2018-05-11T21:12:18.579Z,75.16
2018-05-11T21:14:46.211Z,75.79
2018-05-11T21:17:13.565Z,75.66
2018-05-11T21:19:41.025Z,75.08
2018-05-11T21:22:08.578Z,75.61
2018-05-11T21:24:36.013Z,75.75
2018-05-11T21:27:03.498Z,76.49
2018-05-11T21:29:30.970Z,75.85
2018-05-11T21:31:58.424Z,76.26
2018-05-11T21:34:25.928Z,76.12
2018-05-11T21:36:53.389Z,75.64
2018-05-11T21:39:20.884Z,75.56
2018-05-11T21:41:48.347Z,75.99
2018-05-11T21:44:15.799Z,76.35
2018-05-11T21:46:43.285Z,76.08
2018-05-11T21:49:10.746Z,76.30
2018-05-11T21:51:38.224Z,76.71
2018-05-11T21:54:05.679Z,76.11
2018-05-11T21:56:33.128Z,76.78
2018-05-11T21:59:00.611Z,77.16
2018-05-11T22:01:28.084Z,76.74
2018-05-11T22:03:56.479Z,76.84
2018-05-11T22:06:23.931Z,77.18
2018-05-11T22:08:51.408Z,76.76
2018-05-11T22:11:18.868Z,75.94
2018-05-11T22:13:46.328Z,76.42
2018-05-11T22:16:13.813Z,75.93
2018-05-11T22:18:41.271Z,76.05
2018-05-11T22:21:08.835Z,75.90
2018-05-11T22:23:36.296Z,76.43
2018-05-11T22:26:03.783Z,76.82
2018-05-11T22:28:31.243Z,77.89
2018-05-11T22:30:59.127Z,77.70
2018-05-11T22:33:26.624Z,78.68
2018-05-11T22:35:54.086Z,79.16
2018-05-11T22:38:21.573Z,79.97
2018-05-11T22:40:49.046Z,80.41
2018-05-11T22:43:16.523Z,80.99
2018-05-11T22:45:44.333Z,81.63
2018-05-11T22:48:11.807Z,82.01
2018-05-11T22:50:39.298Z,81.83
2018-05-11T22:53:06.769Z,83.77
2018-05-11T22:55:34.240Z,85.88
2018-05-11T22:58:01.727Z,86.67
2018-05-11T23:00:36.213Z,88.48
2018-05-11T23:03:03.720Z,87.69
2018-05-11T23:05:31.184Z,86.32
2018-05-11T23:07:58.645Z,86.97
2018-05-11T23:10:26.134Z,88.20
2018-05-11T23:12:53.604Z,88.66
2018-05-11T23:15:21.108Z,87.98
2018-05-11T23:17:48.575Z,89.44
2018-05-11T23:20:16.035Z,90.12
2018-05-11T23:22:43.519Z,90.65
2018-05-11T23:25:10.980Z,91.59
2018-05-11T23:27:38.465Z,96.43
2018-05-11T23:30:05.940Z,95.08
2018-05-11T23:32:33.438Z,95.65
2018-05-11T23:35:00.986Z,94.79
2018-05-11T23:37:28.386Z,96.10
2018-05-11T23:39:55.872Z,95.38
2018-05-11T23:42:23.349Z,96.93
2018-05-11T23:44:50.912Z,96.66
2018-05-11T23:47:18.386Z,96.28
2018-05-11T23:49:45.944Z,96.12
2018-05-11T23:52:13.357Z,96.36
2018-05-11T23:54:40.826Z,97.05
2018-05-11T23:57:08.311Z,97.05
2018-05-11T23:59:35.771Z,96.77
